createdAt,value
2018-05-03T00:00:08.028Z,5.37
2018-05-03T00:02:35.512Z,4.60
2018-05-03T00:05:04.124Z,4.57
2018-05-03T00:07:31.595Z,5.00
2018-05-03T00:09:59.080Z,2.70
2018-05-03T00:12:26.534Z,5.90
2018-05-03T00:14:54.013Z,4.80
2018-05-03T00:17:22.377Z,3.90
2018-05-03T00:19:49.837Z,3.50
2018-05-03T00:22:17.299Z,3.13
2018-05-03T00:24:44.808Z,4.27
2018-05-03T00:27:12.264Z,3.30
2018-05-03T00:29:39.725Z,5.80
2018-05-03T00:32:07.209Z,6.70
2018-05-03T00:34:34.668Z,3.50
2018-05-03T00:37:02.143Z,6.60
2018-05-03T00:39:30.400Z,4.53
2018-05-03T00:41:57.857Z,4.67
2018-05-03T00:44:25.330Z,4.40
2018-05-03T00:46:53.564Z,4.87
2018-05-03T00:49:21.030Z,3.50
2018-05-03T00:51:48.490Z,3.53
2018-05-03T00:54:27.977Z,5.63
2018-05-03T00:56:55.437Z,5.40
2018-05-03T00:59:22.908Z,4.00
2018-05-03T01:01:50.492Z,8.10
2018-05-03T01:04:17.949Z,5.67
2018-05-03T01:06:45.405Z,5.93
2018-05-03T01:09:12.896Z,7.23
2018-05-03T01:11:41.149Z,7.60
2018-05-03T01:14:08.604Z,8.40
2018-05-03T01:16:36.277Z,7.23
2018-05-03T01:19:03.724Z,7.87
2018-05-03T01:21:31.187Z,9.40
2018-05-03T01:23:58.673Z,9.73
2018-05-03T01:26:26.897Z,11.23
2018-05-03T01:28:54.352Z,11.07
2018-05-03T01:31:21.833Z,14.30
2018-05-03T01:33:49.293Z,13.03
2018-05-03T01:36:26.448Z,13.10
2018-05-03T01:38:53.926Z,14.63
2018-05-03T01:41:21.391Z,16.53
2018-05-03T01:43:48.941Z,14.23
2018-05-03T01:46:16.400Z,14.63
2018-05-03T01:48:43.906Z,13.77
2018-05-03T01:51:11.392Z,15.33
2018-05-03T01:53:38.878Z,16.47
2018-05-03T01:56:06.336Z,18.10
2018-05-03T01:58:34.597Z,17.20
2018-05-03T02:01:03.568Z,15.23
2018-05-03T02:03:31.050Z,16.43
2018-05-03T02:05:58.529Z,17.57
2018-05-03T02:08:26.752Z,15.37
2018-05-03T02:10:54.228Z,22.70
2018-05-03T02:13:21.693Z,16.83
2018-05-03T02:15:50.672Z,17.07
2018-05-03T02:18:18.156Z,15.53
2018-05-03T02:20:46.385Z,17.27
2018-05-03T02:23:13.861Z,15.80
2018-05-03T02:25:41.349Z,21.00
2018-05-03T02:28:09.582Z,15.93
2018-05-03T02:30:37.045Z,17.77
2018-05-03T02:33:04.554Z,21.60
2018-05-03T02:35:32.764Z,13.83
2018-05-03T02:38:00.225Z,14.60
2018-05-03T02:40:27.725Z,18.70
2018-05-03T02:42:55.945Z,12.77
2018-05-03T02:45:23.410Z,18.73
2018-05-03T02:47:50.991Z,12.30
2018-05-03T02:50:18.453Z,12.00
2018-05-03T02:52:46.733Z,14.40
2018-05-03T02:55:14.235Z,12.93
2018-05-03T02:57:59.218Z,11.03
2018-05-03T03:00:44.505Z,15.17
2018-05-03T03:03:29.922Z,18.87
2018-05-03T03:06:09.993Z,10.70
2018-05-03T03:08:55.300Z,13.97
2018-05-03T03:11:50.203Z,9.53
2018-05-03T03:14:36.280Z,12.70
2018-05-03T03:17:21.597Z,12.20
2018-05-03T03:20:15.654Z,11.83
2018-05-03T03:23:01.051Z,12.30
2018-05-03T03:25:45.029Z,13.70
2018-05-03T03:28:30.163Z,10.17
2018-05-03T03:31:27.104Z,10.47
2018-05-03T03:34:20.269Z,9.63
2018-05-03T03:37:26.344Z,12.90
2018-05-03T03:40:11.489Z,10.57
2018-05-03T03:45:46.183Z,11.40
2018-05-03T03:48:14.394Z,13.40
2018-05-03T03:50:41.875Z,14.03
2018-05-03T03:53:09.397Z,12.57
2018-05-03T03:55:37.568Z,15.63
2018-05-03T03:58:05.026Z,16.10
2018-05-03T04:00:32.631Z,11.10
2018-05-03T04:03:00.101Z,16.30
2018-05-03T04:05:27.549Z,12.00
2018-05-03T04:07:55.788Z,12.70
2018-05-03T04:10:23.261Z,11.30
2018-05-03T04:12:50.707Z,13.37
2018-05-03T04:15:18.389Z,18.03
2018-05-03T04:17:57.721Z,15.40
2018-05-03T04:20:40.021Z,17.70
2018-05-03T04:23:33.040Z,21.17
2018-05-03T04:26:04.048Z,16.80
2018-05-03T04:28:32.351Z,12.87
2018-05-03T04:30:59.810Z,13.90
2018-05-03T04:33:27.297Z,16.80
2018-05-03T04:35:54.770Z,13.77
2018-05-03T04:38:22.279Z,15.03
2018-05-03T04:40:49.837Z,15.47
2018-05-03T04:43:17.396Z,15.43
2018-05-03T04:45:44.833Z,16.93
2018-05-03T04:48:12.356Z,16.93
2018-05-03T04:50:40.585Z,13.73
2018-05-03T04:53:08.048Z,21.00
2018-05-03T04:55:35.649Z,14.43
2018-05-03T04:58:04.285Z,17.23
2018-05-03T05:00:31.852Z,16.87
2018-05-03T05:02:59.443Z,16.33
2018-05-03T05:05:26.905Z,19.43
2018-05-03T05:07:55.179Z,19.80
2018-05-03T05:10:22.664Z,20.27
2018-05-03T05:12:50.971Z,17.43
2018-05-03T05:15:18.449Z,11.93
2018-05-03T05:17:45.924Z,18.63
2018-05-03T05:20:14.206Z,15.60
2018-05-03T05:22:41.676Z,16.53
2018-05-03T05:25:09.922Z,16.23
2018-05-03T05:27:37.381Z,20.10
2018-05-03T05:30:04.882Z,11.93
2018-05-03T05:32:32.363Z,14.33
2018-05-03T05:34:59.829Z,12.43
2018-05-03T05:37:27.316Z,16.17
2018-05-03T05:39:54.769Z,18.07
2018-05-03T05:42:22.336Z,12.97
2018-05-03T05:44:49.796Z,19.23
2018-05-03T05:47:18.018Z,11.93
2018-05-03T05:49:45.648Z,12.70
2018-05-03T05:52:13.873Z,15.13
2018-05-03T05:54:41.338Z,18.80
2018-05-03T05:57:08.833Z,14.97
2018-05-03T05:59:37.060Z,13.50
2018-05-03T06:02:04.519Z,14.90
2018-05-03T06:04:32.103Z,13.77
2018-05-03T06:06:59.556Z,12.10
2018-05-03T06:09:27.013Z,16.97
2018-05-03T06:11:54.489Z,13.20
2018-05-03T06:14:22.733Z,18.47
2018-05-03T06:16:50.213Z,15.80
2018-05-03T06:19:17.689Z,14.90
2018-05-03T06:21:45.169Z,13.13
2018-05-03T06:24:12.625Z,20.10
2018-05-03T06:26:40.126Z,16.67
2018-05-03T06:29:07.572Z,14.37
2018-05-03T06:31:35.045Z,19.17
2018-05-03T06:34:03.327Z,13.17
2018-05-03T06:36:30.800Z,16.17
2018-05-03T06:38:59.195Z,15.50
2018-05-03T06:41:26.532Z,13.87
2018-05-03T06:43:54.757Z,13.90
2018-05-03T06:46:22.289Z,13.90
2018-05-03T06:48:49.752Z,16.10
2018-05-03T06:51:17.218Z,17.23
2018-05-03T06:53:44.676Z,18.07
2018-05-03T06:56:12.180Z,13.07
2018-05-03T06:58:40.499Z,10.97
2018-05-03T07:01:07.909Z,14.53
2018-05-03T07:03:35.384Z,16.73
2018-05-03T07:06:02.870Z,11.13
2018-05-03T07:08:30.335Z,18.10
2018-05-03T07:10:57.808Z,14.40
2018-05-03T07:13:25.260Z,16.83
2018-05-03T07:15:52.718Z,14.40
2018-05-03T07:18:20.226Z,15.00
2018-05-03T07:20:47.684Z,15.33
2018-05-03T07:23:15.157Z,16.20
2018-05-03T07:25:42.649Z,21.03
2018-05-03T07:28:10.109Z,17.40
2018-05-03T07:30:37.564Z,12.30
2018-05-03T07:33:05.057Z,25.23
2018-05-03T07:35:33.278Z,16.93
2018-05-03T07:38:00.752Z,16.40
2018-05-03T07:40:28.234Z,13.77
2018-05-03T07:42:56.456Z,15.70
2018-05-03T07:45:23.914Z,14.03
2018-05-03T07:47:51.388Z,14.40
2018-05-03T07:50:18.864Z,18.93
2018-05-03T07:52:46.326Z,18.97
2018-05-03T07:55:13.809Z,15.23
2018-05-03T07:57:41.287Z,11.10
2018-05-03T08:00:08.739Z,13.97
2018-05-03T08:02:36.249Z,12.23
2018-05-03T08:05:03.723Z,15.20
2018-05-03T08:07:31.965Z,15.70
2018-05-03T08:09:59.433Z,13.10
2018-05-03T08:12:26.894Z,9.27
2018-05-03T08:14:54.548Z,12.37
2018-05-03T08:17:22.013Z,14.90
2018-05-03T08:19:49.475Z,18.33
2018-05-03T08:22:17.034Z,11.30
2018-05-03T08:24:44.465Z,16.20
2018-05-03T08:27:11.925Z,14.40
2018-05-03T08:29:39.520Z,19.03
2018-05-03T08:32:07.751Z,20.20
2018-05-03T08:34:35.213Z,13.03
2018-05-03T08:37:02.691Z,11.00
2018-05-03T08:39:30.153Z,18.90
2018-05-03T08:41:58.403Z,10.90
2018-05-03T08:44:25.865Z,10.27
2018-05-03T08:46:53.345Z,11.47
2018-05-03T08:49:21.578Z,9.30
2018-05-03T08:51:49.048Z,19.67
2018-05-03T08:54:16.512Z,11.27
2018-05-03T08:56:44.011Z,13.07
2018-05-03T08:59:11.478Z,11.20
2018-05-03T09:01:39.098Z,11.17
2018-05-03T09:04:06.533Z,12.10
2018-05-03T09:06:33.997Z,13.50
2018-05-03T09:09:01.509Z,7.53
2018-05-03T09:11:29.069Z,8.73
2018-05-03T09:13:56.626Z,12.83
2018-05-03T09:16:24.110Z,11.77
2018-05-03T09:18:51.580Z,6.27
2018-05-03T09:21:19.037Z,12.43
2018-05-03T09:23:46.532Z,8.80
2018-05-03T09:26:14.746Z,10.60
2018-05-03T09:28:42.206Z,9.77
2018-05-03T09:31:09.676Z,5.27
2018-05-03T09:33:37.136Z,6.97
2018-05-03T09:36:04.585Z,8.07
2018-05-03T09:38:32.071Z,9.33
2018-05-03T09:41:00.292Z,8.30
2018-05-03T09:43:27.749Z,11.07
2018-05-03T09:45:55.220Z,9.00
2018-05-03T09:48:22.703Z,9.67
2018-05-03T09:50:50.144Z,5.63
2018-05-03T09:53:17.636Z,12.20
2018-05-03T09:55:45.880Z,10.07
2018-05-03T09:58:13.336Z,10.30
2018-05-03T10:00:40.813Z,6.40
2018-05-03T10:03:09.033Z,9.50
2018-05-03T10:05:36.504Z,5.83
2018-05-03T10:08:03.999Z,5.37
2018-05-03T10:10:32.236Z,8.00
2018-05-03T10:12:59.700Z,6.90
2018-05-03T10:15:27.190Z,6.47
2018-05-03T10:17:55.427Z,8.03
2018-05-03T10:20:22.971Z,7.47
2018-05-03T10:22:50.444Z,7.93
2018-05-03T10:25:17.977Z,7.73
2018-05-03T10:27:45.448Z,8.57
2018-05-03T10:30:12.949Z,8.63
2018-05-03T10:32:40.376Z,8.90
2018-05-03T10:35:07.847Z,6.60
2018-05-03T10:37:36.941Z,8.33
2018-05-03T10:40:04.405Z,9.07
2018-05-03T10:42:31.861Z,6.07
2018-05-03T10:44:59.335Z,11.77
2018-05-03T10:47:27.551Z,7.40
2018-05-03T10:49:55.020Z,13.07
2018-05-03T10:52:22.525Z,7.37
2018-05-03T10:54:50.775Z,9.47
2018-05-03T10:57:19.043Z,12.30
2018-05-03T10:59:46.528Z,10.53
2018-05-03T11:02:14.764Z,8.03
2018-05-03T11:04:42.222Z,7.03
2018-05-03T11:07:09.712Z,8.07
2018-05-03T11:09:37.936Z,9.07
2018-05-03T11:12:05.410Z,8.03
2018-05-03T11:14:32.957Z,9.03
2018-05-03T11:17:00.360Z,12.03
2018-05-03T11:19:27.812Z,11.10
2018-05-03T11:21:56.065Z,10.07
2018-05-03T11:24:25.042Z,10.10
2018-05-03T11:26:52.500Z,13.20
2018-05-03T11:29:19.995Z,8.10
2018-05-03T11:31:48.222Z,7.63
2018-05-03T11:34:15.675Z,9.73
2018-05-03T11:36:43.248Z,10.70
2018-05-03T11:39:10.632Z,15.23
2018-05-03T11:41:38.871Z,12.03
2018-05-03T11:44:06.359Z,13.87
2018-05-03T11:46:33.836Z,9.60
2018-05-03T11:49:02.061Z,9.53
2018-05-03T11:51:29.546Z,8.10
2018-05-03T11:53:57.000Z,7.80
2018-05-03T11:56:24.461Z,8.53
2018-05-03T11:58:52.121Z,6.43
2018-05-03T12:01:19.602Z,5.13
2018-05-03T12:03:47.821Z,9.60
2018-05-03T12:06:15.495Z,4.90
2018-05-03T12:08:42.957Z,12.57
2018-05-03T12:11:10.412Z,7.13
2018-05-03T12:13:37.897Z,10.07
2018-05-03T12:16:06.129Z,10.33
2018-05-03T12:18:33.581Z,6.00
2018-05-03T12:21:01.078Z,7.47
2018-05-03T12:23:29.304Z,7.50
2018-05-03T12:25:56.773Z,7.90
2018-05-03T12:28:24.346Z,7.47
2018-05-03T12:30:51.816Z,8.37
2018-05-03T12:33:20.791Z,5.83
2018-05-03T12:35:48.285Z,5.53
2018-05-03T12:38:16.513Z,5.43
2018-05-03T12:40:43.976Z,11.40
2018-05-03T12:43:11.453Z,8.10
2018-05-03T12:45:39.774Z,5.83
2018-05-03T12:48:07.344Z,8.17
2018-05-03T12:50:35.155Z,4.60
2018-05-03T12:53:03.432Z,9.77
2018-05-03T12:55:30.885Z,10.37
2018-05-03T12:57:58.365Z,8.00
2018-05-03T13:00:25.828Z,5.23
2018-05-03T13:02:53.285Z,7.03
2018-05-03T13:05:20.772Z,6.80
2018-05-03T13:07:48.234Z,4.83
2018-05-03T13:10:15.689Z,8.53
2018-05-03T13:12:43.169Z,6.13
2018-05-03T13:15:10.613Z,4.63
2018-05-03T13:17:38.078Z,4.73
2018-05-03T13:20:05.666Z,7.87
2018-05-03T13:22:33.154Z,6.83
2018-05-03T13:25:00.609Z,5.00
2018-05-03T13:27:28.096Z,5.03
2018-05-03T13:29:56.321Z,6.13
2018-05-03T13:32:23.774Z,4.67
2018-05-03T13:34:52.124Z,8.80
2018-05-03T13:37:20.361Z,5.63
2018-05-03T13:39:47.812Z,6.33
2018-05-03T13:42:15.290Z,4.80
2018-05-03T13:44:42.744Z,3.27
2018-05-03T13:47:10.200Z,3.60
2018-05-03T13:49:37.689Z,2.83
2018-05-03T13:52:05.925Z,5.60
2018-05-03T13:54:33.385Z,7.30
2018-05-03T13:57:00.912Z,6.10
2018-05-03T13:59:28.339Z,6.00
2018-05-03T14:01:56.557Z,4.30
2018-05-03T14:04:24.036Z,7.80
2018-05-03T14:06:51.502Z,4.77
2018-05-03T14:09:18.969Z,3.33
2018-05-03T14:11:46.449Z,5.57
2018-05-03T14:14:14.689Z,5.67
2018-05-03T14:16:42.173Z,4.23
2018-05-03T14:19:10.434Z,5.63
2018-05-03T14:21:37.889Z,7.67
2018-05-03T14:24:05.344Z,5.27
2018-05-03T14:26:32.839Z,4.30
2018-05-03T14:29:01.061Z,6.83
2018-05-03T14:31:28.529Z,8.83
2018-05-03T14:33:56.006Z,5.33
2018-05-03T14:36:24.318Z,4.40
2018-05-03T14:38:51.883Z,9.03
2018-05-03T14:41:19.364Z,4.27
2018-05-03T14:43:46.860Z,6.73
2018-05-03T14:46:15.089Z,2.87
2018-05-03T14:48:42.576Z,3.83
2018-05-03T14:51:10.034Z,4.50
2018-05-03T14:53:37.494Z,7.30
2018-05-03T14:56:05.766Z,5.67
2018-05-03T14:58:33.217Z,4.47
2018-05-03T15:01:00.742Z,5.10
2018-05-03T15:03:28.181Z,4.47
2018-05-03T15:05:55.692Z,4.17
2018-05-03T15:08:24.809Z,5.30
2018-05-03T15:10:53.064Z,9.23
2018-05-03T15:13:21.893Z,6.97
2018-05-03T15:15:50.516Z,6.97
2018-05-03T15:18:18.779Z,6.00
2018-05-03T15:20:46.335Z,7.17
2018-05-03T15:23:14.344Z,7.80
2018-05-03T15:25:42.587Z,7.00
2018-05-03T15:28:10.115Z,4.27
2018-05-03T15:30:37.673Z,7.67
2018-05-03T15:33:05.182Z,9.70
2018-05-03T15:35:32.665Z,6.10
2018-05-03T15:38:00.979Z,9.30
2018-05-03T15:40:28.445Z,6.73
2018-05-03T15:42:55.901Z,12.07
2018-05-03T15:45:23.378Z,5.00
2018-05-03T15:47:51.712Z,4.30
2018-05-03T15:50:19.358Z,8.00
2018-05-03T15:52:46.725Z,5.60
2018-05-03T15:55:14.209Z,6.30
2018-05-03T15:57:41.673Z,5.27
2018-05-03T16:00:09.133Z,7.47
2018-05-03T16:02:39.079Z,5.40
2018-05-03T16:05:07.324Z,4.17
2018-05-03T16:07:36.354Z,7.47
2018-05-03T16:10:03.934Z,4.43
2018-05-03T16:12:32.122Z,8.90
2018-05-03T16:14:59.584Z,5.70
2018-05-03T16:17:27.064Z,5.23
2018-05-03T16:19:54.531Z,4.77
2018-05-03T16:22:22.005Z,5.67
2018-05-03T16:24:50.282Z,9.63
2018-05-03T16:27:18.506Z,3.87
2018-05-03T16:29:45.964Z,7.23
2018-05-03T16:32:13.641Z,6.47
2018-05-03T16:34:41.110Z,9.90
2018-05-03T16:37:08.594Z,6.73
2018-05-03T16:39:36.848Z,7.17
2018-05-03T16:42:05.284Z,6.60
2018-05-03T16:44:32.765Z,6.30
2018-05-03T16:47:00.287Z,6.60
2018-05-03T16:49:27.757Z,4.93
2018-05-03T16:51:56.287Z,2.57
2018-05-03T16:54:24.561Z,5.07
2018-05-03T16:56:52.833Z,4.23
2018-05-03T16:59:20.312Z,6.40
2018-05-03T17:01:48.667Z,4.33
2018-05-03T17:04:16.905Z,3.47
2018-05-03T17:06:44.392Z,5.00
2018-05-03T17:09:11.907Z,6.10
2018-05-03T17:11:39.376Z,3.87
2018-05-03T17:14:06.910Z,5.93
2018-05-03T17:16:34.315Z,8.47
2018-05-03T17:19:01.772Z,7.83
2018-05-03T17:21:29.224Z,6.37
2018-05-03T17:23:56.703Z,3.90
2018-05-03T17:26:25.012Z,5.70
2018-05-03T17:28:52.686Z,7.17
2018-05-03T17:31:20.168Z,5.20
2018-05-03T17:33:47.664Z,9.30
2018-05-03T17:36:15.964Z,5.87
2018-05-03T17:38:44.006Z,9.20
2018-05-03T17:41:12.227Z,8.80
2018-05-03T17:43:39.710Z,4.23
2018-05-03T17:46:07.196Z,5.03
2018-05-03T17:48:34.667Z,4.13
2018-05-03T17:51:02.215Z,5.33
2018-05-03T17:53:29.624Z,7.03
2018-05-03T17:56:08.725Z,3.63
2018-05-03T17:58:36.201Z,8.40
2018-05-03T18:01:03.662Z,7.67
2018-05-03T18:03:31.710Z,5.63
2018-05-03T18:05:59.311Z,4.00
2018-05-03T18:08:26.779Z,7.80
2018-05-03T18:10:54.314Z,4.87
2018-05-03T18:13:22.496Z,7.80
2018-05-03T18:15:51.544Z,5.13
2018-05-03T18:18:18.942Z,5.03
2018-05-03T18:20:51.425Z,8.90
2018-05-03T18:23:18.898Z,9.00
2018-05-03T18:25:47.126Z,7.03
2018-05-03T18:28:14.665Z,5.83
2018-05-03T18:30:42.080Z,4.30
2018-05-03T18:33:10.325Z,4.00
2018-05-03T18:35:37.997Z,7.10
2018-05-03T18:38:05.542Z,8.00
2018-05-03T18:40:32.976Z,9.90
2018-05-03T18:43:00.482Z,11.63
2018-05-03T18:45:28.728Z,4.90
2018-05-03T18:47:56.192Z,6.40
2018-05-03T18:50:23.860Z,4.67
2018-05-03T18:52:51.332Z,5.80
2018-05-03T18:55:19.563Z,5.37
2018-05-03T18:57:47.415Z,6.40
2018-05-03T19:00:14.874Z,6.90
2018-05-03T19:02:42.358Z,3.70
2018-05-03T19:05:09.830Z,9.50
2018-05-03T19:07:37.361Z,7.40
2018-05-03T19:10:05.536Z,6.03
2018-05-03T19:12:33.021Z,5.43
2018-05-03T19:15:00.630Z,5.33
2018-05-03T19:17:28.084Z,4.93
2018-05-03T19:19:55.573Z,5.27
2018-05-03T19:22:23.101Z,6.90
2018-05-03T19:24:50.557Z,9.47
2018-05-03T19:27:18.051Z,4.60
2018-05-03T19:29:45.519Z,5.13
2018-05-03T19:32:13.765Z,10.60
2018-05-03T19:34:41.254Z,8.63
2018-05-03T19:37:08.760Z,5.53
2018-05-03T19:39:36.320Z,5.57
2018-05-03T19:42:03.820Z,3.70
2018-05-03T19:44:31.284Z,4.80
2018-05-03T19:46:58.736Z,6.10
2018-05-03T19:49:26.225Z,8.17
2018-05-03T19:51:53.702Z,5.47
2018-05-03T19:54:21.157Z,5.77
2018-05-03T19:56:48.678Z,6.10
2018-05-03T19:59:16.138Z,6.03
2018-05-03T20:01:44.367Z,4.77
2018-05-03T20:04:11.908Z,5.03
2018-05-03T20:06:39.390Z,11.80
2018-05-03T20:09:06.869Z,4.90
2018-05-03T20:11:34.378Z,5.87
2018-05-03T20:14:01.833Z,6.70
2018-05-03T20:16:29.315Z,7.40
2018-05-03T20:18:56.790Z,8.03
2018-05-03T20:21:24.269Z,5.70
2018-05-03T20:23:52.570Z,6.03
2018-05-03T20:26:20.947Z,7.73
2018-05-03T20:28:49.231Z,5.23
2018-05-03T20:31:16.719Z,6.77
2018-05-03T20:33:44.244Z,7.30
2018-05-03T20:36:15.527Z,4.80
2018-05-03T20:38:43.003Z,9.17
2018-05-03T20:41:10.500Z,6.77
2018-05-03T20:43:37.964Z,7.07
2018-05-03T20:46:05.552Z,9.77
2018-05-03T20:48:33.720Z,8.00
2018-05-03T20:51:01.258Z,11.00
2018-05-03T20:53:28.762Z,9.37
2018-05-03T20:55:56.226Z,10.87
2018-05-03T20:58:23.715Z,9.70
2018-05-03T21:00:51.197Z,10.73
2018-05-03T21:03:18.651Z,5.17
2018-05-03T21:05:46.130Z,4.60
2018-05-03T21:08:13.653Z,6.10
2018-05-03T21:10:41.141Z,8.80
2018-05-03T21:13:08.604Z,8.03
2018-05-03T21:15:36.092Z,8.40
2018-05-03T21:18:04.313Z,8.50
2018-05-03T21:20:31.786Z,4.13
2018-05-03T21:23:00.045Z,7.33
2018-05-03T21:25:27.508Z,7.87
2018-05-03T21:27:54.988Z,7.67
2018-05-03T21:30:24.080Z,6.13
2018-05-03T21:32:51.560Z,4.70
2018-05-03T21:35:19.772Z,6.57
2018-05-03T21:37:47.253Z,6.70
2018-05-03T21:40:14.716Z,7.00
2018-05-03T21:42:42.198Z,5.60
2018-05-03T21:45:09.671Z,6.60
2018-05-03T21:47:37.133Z,5.23
2018-05-03T21:50:04.592Z,10.30
2018-05-03T21:52:32.079Z,4.53
2018-05-03T21:54:59.544Z,6.07
2018-05-03T21:57:26.997Z,6.10
2018-05-03T21:59:54.473Z,4.20
2018-05-03T22:02:23.445Z,7.30
2018-05-03T22:04:50.922Z,7.13
2018-05-03T22:07:18.386Z,6.00
2018-05-03T22:09:45.862Z,8.10
2018-05-03T22:12:14.097Z,5.70
2018-05-03T22:14:41.568Z,9.20
2018-05-03T22:17:09.030Z,5.90
2018-05-03T22:19:37.256Z,13.23
2018-05-03T22:22:05.508Z,4.90
2018-05-03T22:24:32.975Z,9.57
2018-05-03T22:27:00.468Z,7.83
2018-05-03T22:29:27.973Z,4.53
2018-05-03T22:31:56.193Z,9.03
2018-05-03T22:34:23.660Z,7.60
2018-05-03T22:36:51.109Z,4.47
2018-05-03T22:39:18.596Z,4.93
2018-05-03T22:41:46.288Z,4.70
2018-05-03T22:44:14.514Z,9.93
2018-05-03T22:46:41.964Z,7.40
2018-05-03T22:49:09.442Z,7.50
2018-05-03T22:51:36.920Z,4.10
2018-05-03T22:54:05.165Z,7.67
2018-05-03T22:56:32.648Z,8.73
2018-05-03T22:59:00.881Z,7.60
2018-05-03T23:01:28.415Z,10.47
2018-05-03T23:03:55.885Z,7.00
2018-05-03T23:06:23.349Z,10.27
2018-05-03T23:08:50.808Z,6.97
2018-05-03T23:11:18.264Z,9.53
2018-05-03T23:13:45.729Z,8.10
2018-05-03T23:16:13.197Z,11.00
2018-05-03T23:18:40.681Z,13.53
2018-05-03T23:21:08.902Z,8.07
2018-05-03T23:23:36.389Z,6.23
2018-05-03T23:26:03.841Z,7.73
2018-05-03T23:28:31.316Z,11.03
2018-05-03T23:30:59.537Z,9.70
2018-05-03T23:33:28.325Z,8.43
2018-05-03T23:35:55.773Z,9.90
2018-05-03T23:38:23.328Z,7.43
2018-05-03T23:40:50.889Z,6.90
2018-05-03T23:43:18.389Z,13.60
2018-05-03T23:45:45.841Z,8.73
2018-05-03T23:48:13.321Z,7.43
2018-05-03T23:50:41.566Z,5.23
2018-05-03T23:53:09.037Z,6.60
2018-05-03T23:55:37.263Z,9.17
2018-05-03T23:58:04.766Z,7.07
